Time;durP1;ratioP1;P1;durP2;ratioP2;P2;SDS_P1;SDS_P2;PMS_P1;PMS_P2;Temp;Humidity;BMP_temperature;BMP_pressure;BME280_temperature;BME280_humidity;BME280_pressure;Samples;Min_cycle;Max_cycle;Signal;HPM_P1;HPM_P2
2022/04/04 00:02:18;;;;;;;12.82;8.80;;;;;;;8.13;100.00;100673.91;4956055;29;20055;-80
2022/04/04 00:04:44;;;;;;;16.85;9.00;;;;;;;8.29;100.00;100674.19;4956171;29;20042;-81
2022/04/04 00:07:09;;;;;;;12.45;8.30;;;;;;;8.09;100.00;100681.28;4939652;29;20040;-82
2022/04/04 00:09:35;;;;;;;13.02;8.93;;;;;;;8.07;100.00;100682.41;4956300;29;20039;-81
2022/04/04 00:12:01;;;;;;;14.20;8.13;;;;;;;8.10;100.00;100676.84;4956844;29;20042;-82
2022/04/04 00:14:27;;;;;;;16.83;7.60;;;;;;;8.11;100.00;100678.53;4939806;29;20027;-82
2022/04/04 00:16:53;;;;;;;12.82;7.70;;;;;;;8.06;100.00;100686.00;4939054;29;20039;-82
2022/04/04 00:19:56;;;;;;;13.05;7.97;;;;;;;7.97;100.00;100677.16;4956664;29;20399;-81
2022/04/04 00:22:22;;;;;;;12.57;7.45;;;;;;;8.06;100.00;100675.47;4959376;29;20050;-83
2022/04/04 00:24:48;;;;;;;15.10;7.72;;;;;;;7.92;100.00;100673.28;4975570;29;20087;-81
2022/04/04 00:27:13;;;;;;;15.50;7.53;;;;;;;8.16;100.00;100678.91;4978856;28;20044;-82
2022/04/04 00:29:39;;;;;;;13.80;8.32;;;;;;;7.97;100.00;100676.31;4960576;28;20125;-81
2022/04/04 00:32:05;;;;;;;10.77;7.60;;;;;;;7.99;100.00;100675.19;4887977;28;1998702;-82
2022/04/04 00:34:31;;;;;;;18.30;8.80;;;;;;;7.94;100.00;100676.59;4956651;29;20027;-81
2022/04/04 00:36:56;;;;;;;15.95;9.52;;;;;;;7.85;100.00;100666.91;4956566;29;20062;-80
2022/04/04 00:39:22;;;;;;;14.70;8.35;;;;;;;7.91;100.00;100666.34;4956295;29;20057;-80
2022/04/04 00:41:48;;;;;;;12.80;8.65;;;;;;;7.88;100.00;100661.34;4956426;29;20475;-83
2022/04/04 00:44:14;;;;;;;10.82;8.38;;;;;;;7.86;100.00;100668.53;4956229;29;20027;-82
2022/04/04 00:46:41;;;;;;;14.15;8.38;;;;;;;7.71;100.00;100666.34;4939252;29;20554;-81
2022/04/04 00:49:08;;;;;;;12.30;8.55;;;;;;;7.67;100.00;100669.41;4956566;29;20067;-82
2022/04/04 00:51:35;;;;;;;16.73;7.40;;;;;;;7.80;100.00;100662.88;4956177;29;20047;-81
2022/04/04 00:54:02;;;;;;;14.23;7.68;;;;;;;7.93;100.00;100669.66;4956384;29;20039;-80
2022/04/04 00:56:28;;;;;;;11.90;7.13;;;;;;;8.00;100.00;100662.84;4956146;29;20426;-82
2022/04/04 00:58:54;;;;;;;9.55;6.53;;;;;;;8.06;100.00;100662.25;4956679;29;20031;-84
2022/04/04 01:01:23;;;;;;;12.00;6.75;;;;;;;8.01;100.00;100656.59;4956721;29;20035;-81
2022/04/04 01:03:48;;;;;;;15.00;7.10;;;;;;;7.87;100.00;100654.38;4938562;29;20039;-84
2022/04/04 01:06:14;;;;;;;10.85;7.10;;;;;;;7.89;100.00;100658.53;4955603;29;20503;-82
2022/04/04 01:08:40;;;;;;;15.27;7.22;;;;;;;7.82;100.00;100655.63;4938684;29;20098;-80
2022/04/04 01:11:06;;;;;;;11.40;7.00;;;;;;;7.70;100.00;100654.13;4955674;29;20078;-83
2022/04/04 01:13:32;;;;;;;14.13;7.45;;;;;;;7.58;100.00;100655.25;4955698;29;20031;-84
2022/04/04 01:15:57;;;;;;;14.65;7.68;;;;;;;7.71;100.00;100666.34;4938531;29;20406;-83
2022/04/04 01:18:23;;;;;;;11.57;7.03;;;;;;;7.68;100.00;100656.09;4955733;29;20457;-84
2022/04/04 01:20:50;;;;;;;15.85;6.82;;;;;;;7.82;100.00;100663.56;4955377;29;20549;-84
2022/04/04 01:23:24;;;;;;;15.10;7.05;;;;;;;7.92;100.00;100654.81;4955616;29;20472;-83
2022/04/04 01:25:49;;;;;;;14.73;7.70;;;;;;;7.90;100.00;100669.94;4955737;29;20067;-83
2022/04/04 01:28:15;;;;;;;13.63;7.78;;;;;;;7.85;100.00;100656.34;4955401;29;20089;-82
2022/04/04 01:30:41;;;;;;;13.60;7.60;;;;;;;7.77;100.00;100670.22;4955489;29;20053;-80
2022/04/04 01:33:07;;;;;;;14.02;8.07;;;;;;;7.53;100.00;100665.38;4937855;29;20106;-82
2022/04/04 01:35:33;;;;;;;10.60;7.95;;;;;;;7.59;100.00;100658.75;4938450;29;20042;-82
2022/04/04 01:37:58;;;;;;;13.18;8.30;;;;;;;7.57;100.00;100653.59;4955419;29;20126;-82
2022/04/04 01:40:24;;;;;;;16.20;9.98;;;;;;;7.66;100.00;100660.66;4921939;29;20031;-82
2022/04/04 01:42:55;;;;;;;14.30;10.02;;;;;;;7.69;100.00;100647.19;4955159;29;20614;-82
2022/04/04 01:46:23;;;;;;;18.00;10.77;;;;;;;7.60;100.00;100650.66;4954964;29;20446;-81
2022/04/04 01:48:07;;;;;;;16.05;11.65;;;;;;;7.45;100.00;100651.25;4955022;29;20454;-82
2022/04/04 01:50:33;;;;;;;16.73;11.50;;;;;;;7.34;100.00;100648.72;4922121;29;20031;-84
2022/04/04 01:55:43;;;;;;;17.40;13.00;;;;;;;7.18;100.00;100649.28;4955162;29;20466;-81
2022/04/04 01:58:08;;;;;;;17.73;12.85;;;;;;;7.34;100.00;100662.75;4955576;29;20110;-81
2022/04/04 02:00:34;;;;;;;20.92;13.07;;;;;;;7.38;100.00;100655.41;4954897;29;20038;-83
2022/04/04 02:03:00;;;;;;;20.40;13.60;;;;;;;7.28;100.00;100652.75;4954924;29;20620;-81
2022/04/04 02:05:25;;;;;;;19.38;13.38;;;;;;;7.07;100.00;100652.88;4955005;29;20070;-83
2022/04/04 02:07:51;;;;;;;25.88;17.23;;;;;;;6.96;100.00;100662.72;4954852;29;20028;-82
2022/04/04 02:10:16;;;;;;;20.25;14.68;;;;;;;6.90;100.00;100652.69;4937572;29;20460;-82
2022/04/04 02:12:42;;;;;;;18.88;13.73;;;;;;;7.02;100.00;100646.34;4954998;29;20534;-81
2022/04/04 02:15:08;;;;;;;20.83;14.57;;;;;;;6.99;100.00;100657.16;4954792;29;20111;-80
2022/04/04 02:17:34;;;;;;;22.58;13.70;;;;;;;7.33;100.00;100658.44;4954694;29;20082;-81
2022/04/04 02:20:00;;;;;;;18.80;13.25;;;;;;;7.31;100.00;100652.47;4954875;29;20384;-82
2022/04/04 02:22:25;;;;;;;22.17;14.05;;;;;;;7.28;100.00;100658.03;4954559;29;20388;-84
2022/04/04 02:24:51;;;;;;;21.38;14.68;;;;;;;7.10;100.00;100654.38;4954827;29;20115;-81
2022/04/04 02:27:18;;;;;;;21.23;15.70;;;;;;;7.34;100.00;100657.47;4954952;29;20031;-80
2022/04/04 02:29:43;;;;;;;20.55;15.27;;;;;;;7.23;100.00;100654.97;4954736;29;20067;-82
2022/04/04 02:32:09;;;;;;;21.13;16.00;;;;;;;7.07;100.00;100654.66;4954666;29;20490;-82
2022/04/04 02:34:35;;;;;;;24.98;15.65;;;;;;;7.01;100.00;100649.94;4954580;29;20114;-83
2022/04/04 02:37:00;;;;;;;21.75;16.02;;;;;;;7.16;100.00;100648.56;4938257;29;20436;-82
2022/04/04 02:39:26;;;;;;;23.73;16.50;;;;;;;7.13;100.00;100654.13;4954456;29;20110;-82
2022/04/04 02:41:52;;;;;;;20.55;15.13;;;;;;;7.05;100.00;100651.34;4936953;29;20043;-82
2022/04/04 02:44:18;;;;;;;22.70;16.48;;;;;;;7.08;100.00;100654.53;4954713;29;20113;-82
2022/04/04 02:46:43;;;;;;;23.73;17.20;;;;;;;6.97;100.00;100664.34;4954826;29;20023;-81
2022/04/04 02:49:09;;;;;;;21.38;16.60;;;;;;;6.84;100.00;100661.97;4954341;29;20033;-83
2022/04/04 02:51:35;;;;;;;24.70;16.98;;;;;;;6.80;100.00;100665.00;4956396;28;20074;-79
2022/04/04 02:54:01;;;;;;;25.48;17.38;;;;;;;6.74;100.00;100659.31;4959974;29;20036;-81
2022/04/04 02:56:29;;;;;;;24.83;16.95;;;;;;;6.69;100.00;100660.69;4960358;29;20434;-82
2022/04/04 02:58:56;;;;;;;23.55;15.98;;;;;;;6.95;100.00;100650.50;4941858;29;20031;-82
2022/04/04 03:01:22;;;;;;;21.70;15.05;;;;;;;7.13;100.00;100654.13;4957860;29;20588;-81
2022/04/04 03:03:48;;;;;;;23.33;15.80;;;;;;;6.90;100.00;100655.31;4958287;28;20039;-82
2022/04/04 03:06:14;;;;;;;22.52;16.40;;;;;;;6.83;100.00;100651.59;4958281;29;20043;-81
2022/04/04 03:08:43;;;;;;;22.42;16.15;;;;;;;6.86;100.00;100651.31;4958002;29;20035;-81
2022/04/04 03:11:09;;;;;;;22.83;16.48;;;;;;;6.84;100.00;100642.69;4959431;29;20058;-80
2022/04/04 03:13:34;;;;;;;23.80;16.85;;;;;;;6.70;100.00;100654.44;4963457;29;20043;-82
2022/04/04 03:16:00;;;;;;;25.55;17.35;;;;;;;6.61;100.00;100648.19;4979461;28;20051;-81
2022/04/04 03:18:26;;;;;;;25.83;16.92;;;;;;;6.76;100.00;100646.81;4982466;28;20031;-82
2022/04/04 03:20:52;;;;;;;23.48;16.60;;;;;;;7.04;100.00;100644.41;4961801;29;20035;-80
2022/04/04 03:23:19;;;;;;;24.90;15.88;;;;;;;6.91;100.00;100649.09;4940499;29;20066;-82
2022/04/04 03:25:45;;;;;;;21.58;15.75;;;;;;;6.93;100.00;100652.41;4940530;29;20039;-80
2022/04/04 03:28:11;;;;;;;22.35;16.08;;;;;;;6.74;100.00;100653.22;4957801;29;20047;-80
2022/04/04 03:30:36;;;;;;;22.92;16.13;;;;;;;6.88;100.00;100655.47;4957656;29;20031;-80
2022/04/04 03:33:03;;;;;;;20.92;15.50;;;;;;;6.99;100.00;100651.91;4957849;29;20495;-80
2022/04/04 03:35:31;;;;;;;22.30;16.33;;;;;;;6.82;100.00;100663.91;4957711;29;20035;-81
2022/04/04 03:37:59;;;;;;;21.80;16.10;;;;;;;7.06;100.00;100653.81;4957465;29;20043;-81
2022/04/04 03:40:26;;;;;;;23.48;15.55;;;;;;;6.83;100.00;100657.66;4957469;29;20046;-82
2022/04/04 03:42:54;;;;;;;25.52;17.42;;;;;;;6.88;100.00;100660.75;4957985;29;20051;-80
2022/04/04 03:45:21;;;;;;;23.63;15.90;;;;;;;6.93;100.00;100660.31;4958358;29;20039;-80
2022/04/04 03:47:48;;;;;;;21.88;16.38;;;;;;;6.94;100.00;100662.81;4958065;29;20062;-80
2022/04/04 03:53:36;;;;;;;25.13;17.30;;;;;;;6.72;100.00;100650.72;4967236;29;20047;-80
2022/04/04 03:56:02;;;;;;;26.58;17.92;;;;;;;6.80;100.00;100655.28;4963417;29;20090;-81
2022/04/04 03:58:27;;;;;;;27.10;18.13;;;;;;;6.53;100.00;100655.09;4974424;29;20039;-81
2022/04/04 04:00:53;;;;;;;27.02;17.95;;;;;;;6.44;100.00;100645.34;4981256;29;20035;-79
2022/04/04 04:03:18;;;;;;;29.52;18.50;;;;;;;6.46;100.00;100646.91;4951292;29;20063;-80
2022/04/04 04:05:44;;;;;;;29.58;20.35;;;;;;;6.31;100.00;100653.47;4967461;29;20043;-80
2022/04/04 04:08:10;;;;;;;31.73;20.63;;;;;;;6.21;100.00;100649.94;4959701;29;20039;-81
2022/04/04 04:10:35;;;;;;;31.27;20.67;;;;;;;6.10;100.00;100648.22;4966398;29;20069;-80
2022/04/04 04:13:05;;;;;;;28.65;19.50;;;;;;;6.09;100.00;100656.25;4969571;29;20063;-81
2022/04/04 04:15:31;;;;;;;28.92;20.38;;;;;;;6.03;100.00;100657.59;4967800;29;20042;-83
2022/04/04 04:17:56;;;;;;;26.90;19.73;;;;;;;5.93;100.00;100655.91;4968574;29;20034;-80
2022/04/04 04:20:23;;;;;;;31.17;21.17;;;;;;;6.02;100.00;100660.38;4961228;29;20035;-82
2022/04/04 04:23:08;;;;;;;31.42;21.23;;;;;;;6.02;100.00;100665.63;4957339;29;20043;-81
2022/04/04 04:25:35;;;;;;;33.85;21.20;;;;;;;6.07;100.00;100668.69;4957971;29;20498;-81
2022/04/04 04:28:03;;;;;;;30.70;21.00;;;;;;;6.26;100.00;100663.56;4958096;29;20031;-85
2022/04/04 04:30:30;;;;;;;29.02;20.65;;;;;;;6.38;100.00;100683.56;4958919;29;20039;-83
2022/04/04 04:32:57;;;;;;;30.67;18.52;;;;;;;6.46;100.00;100678.50;4958393;29;20390;-83
2022/04/04 04:35:23;;;;;;;31.23;19.73;;;;;;;6.58;100.00;100673.94;4959101;29;20035;-83
2022/04/04 04:37:52;;;;;;;27.17;18.33;;;;;;;6.81;100.00;100678.03;4957137;29;20411;-82
2022/04/04 04:40:19;;;;;;;28.70;19.02;;;;;;;6.60;100.00;100677.25;4923519;29;20031;-83
2022/04/04 04:42:46;;;;;;;26.63;17.58;;;;;;;6.41;100.00;100683.28;4956914;29;20039;-83
2022/04/04 04:45:13;;;;;;;24.60;16.25;;;;;;;6.43;100.00;100686.63;4957549;29;20511;-83
2022/04/04 04:47:39;;;;;;;20.33;14.68;;;;;;;6.48;100.00;100684.44;4957188;29;20040;-84
2022/04/04 04:50:11;;;;;;;23.23;15.75;;;;;;;6.40;100.00;100689.50;4926713;29;20095;-85
2022/04/04 04:52:38;;;;;;;21.40;14.35;;;;;;;6.40;100.00;100686.88;4963548;29;20053;-86
2022/04/04 04:55:08;;;;;;;23.88;14.75;;;;;;;6.32;100.00;100689.34;4943271;29;20165;-87
2022/04/04 04:57:37;;;;;;;21.17;14.63;;;;;;;6.45;100.00;100695.25;4943300;29;20103;-86
2022/04/04 05:00:14;;;;;;;22.77;15.27;;;;;;;6.48;100.00;100699.41;4962444;29;20027;-87
2022/04/04 05:02:39;;;;;;;23.67;15.27;;;;;;;6.47;100.00;100708.25;4945994;29;20039;-87
2022/04/04 05:05:12;;;;;;;24.08;15.93;;;;;;;6.54;100.00;100710.25;4946222;29;20036;-86
2022/04/04 05:07:37;;;;;;;24.92;15.77;;;;;;;6.33;100.00;100706.78;4953894;29;20062;-86
2022/04/04 05:10:09;;;;;;;24.47;15.50;;;;;;;6.40;100.00;100704.47;4919413;29;20130;-87
2022/04/04 05:12:38;;;;;;;21.23;14.95;;;;;;;6.64;100.00;100708.47;4945905;29;20318;-86
2022/04/04 05:15:04;;;;;;;25.45;16.95;;;;;;;6.66;100.00;100709.16;4955779;28;20051;-87
2022/04/04 05:17:32;;;;;;;32.10;18.15;;;;;;;6.57;100.00;100711.75;4927082;29;20035;-84
2022/04/04 05:19:58;;;;;;;33.35;19.20;;;;;;;6.37;100.00;100713.47;4944230;29;20035;-84
2022/04/04 05:22:27;;;;;;;31.80;20.60;;;;;;;6.35;100.00;100711.94;4945816;29;20165;-85
2022/04/04 05:24:56;;;;;;;27.05;17.77;;;;;;;6.38;100.00;100709.88;4965341;29;20125;-87
2022/04/04 05:27:21;;;;;;;21.85;14.65;;;;;;;6.21;100.00;100707.84;4943342;29;20023;-84
2022/04/04 05:29:55;;;;;;;21.10;14.82;;;;;;;6.32;100.00;100715.69;4933653;29;20054;-87
2022/04/04 05:32:24;;;;;;;21.80;13.38;;;;;;;6.40;100.00;100707.94;4947847;29;20043;-89
2022/04/04 05:34:58;;;;;;;29.90;12.82;;;;;;;6.06;100.00;100719.66;4948437;29;20038;-88
2022/04/04 05:37:30;;;;;;;20.23;12.13;;;;;;;6.13;100.00;100723.47;4931892;29;20035;-84
2022/04/04 05:39:58;;;;;;;21.00;11.68;;;;;;;6.12;100.00;100724.41;4949149;29;20043;-89
2022/04/04 05:42:28;;;;;;;20.80;12.13;;;;;;;5.88;100.00;100722.03;4934692;29;20492;-92
2022/04/04 05:45:23;;;;;;;21.42;12.50;;;;;;;5.95;100.00;100732.88;4987538;23;20066;-84
2022/04/04 05:47:55;;;;;;;;;;;;;;;6.01;100.00;100745.50;4940783;29;20103;-87
2022/04/04 05:50:24;;;;;;;18.75;11.70;;;;;;;5.83;100.00;100734.72;4940225;29;19910;-84
2022/04/04 05:52:49;;;;;;;15.55;10.90;;;;;;;5.90;100.00;100740.31;4951838;29;20039;-86
2022/04/04 05:55:15;;;;;;;16.55;11.52;;;;;;;6.00;100.00;100739.41;4935427;29;20099;-87
2022/04/04 05:57:42;;;;;;;17.50;11.90;;;;;;;5.79;100.00;100733.28;4931383;29;20055;-88
2022/04/04 06:00:11;;;;;;;18.25;13.13;;;;;;;5.78;100.00;100736.88;4919571;29;20040;-89
2022/04/04 06:02:38;;;;;;;21.88;13.05;;;;;;;5.75;100.00;100726.59;4950964;29;20058;-85
2022/04/04 06:05:06;;;;;;;21.40;13.43;;;;;;;5.75;100.00;100737.13;4934126;29;20034;-85
2022/04/04 06:07:53;;;;;;;24.38;13.43;;;;;;;5.72;100.00;100743.47;4947521;29;20042;-84
2022/04/04 06:10:20;;;;;;;19.38;13.27;;;;;;;5.80;100.00;100755.97;4917003;29;20039;-86
2022/04/04 06:12:46;;;;;;;23.83;14.68;;;;;;;5.90;100.00;100753.47;4928817;29;20098;-89
2022/04/04 06:15:12;;;;;;;21.40;13.68;;;;;;;6.04;100.00;100755.78;4909611;29;20063;-88
2022/04/04 06:17:41;;;;;;;23.23;14.15;;;;;;;6.01;100.00;100759.50;4911354;29;20042;-91
2022/04/04 06:20:09;;;;;;;20.80;14.38;;;;;;;6.13;100.00;100753.22;4943247;29;20119;-84
2022/04/04 06:22:38;;;;;;;22.02;14.68;;;;;;;6.11;100.00;100760.41;4928232;29;20135;-87
2022/04/04 06:25:10;;;;;;;26.33;17.40;;;;;;;6.00;100.00;100751.75;4923540;29;20039;-86
2022/04/04 06:27:50;;;;;;;;;;;;;;;;;;;;;
2022/04/04 06:34:48;;;;;;;28.77;17.33;;;;;;;6.30;100.00;100764.97;4957471;29;20043;-86
2022/04/04 06:37:36;;;;;;;46.97;21.25;;;;;;;6.39;100.00;100758.94;4927169;28;20030;-86
2022/04/04 06:43:32;;;;;;;33.05;16.98;;;;;;;6.47;100.00;100761.75;4964207;28;20032;-85
2022/04/04 06:45:59;;;;;;;32.40;17.98;;;;;;;6.62;100.00;100764.88;4949646;28;20044;-86
2022/04/04 06:48:25;;;;;;;25.45;15.77;;;;;;;6.57;100.00;100762.63;4943661;29;20031;-81
2022/04/04 06:50:51;;;;;;;22.42;15.45;;;;;;;6.59;100.00;100755.47;4922798;29;20051;-87
2022/04/04 06:53:21;;;;;;;27.02;16.38;;;;;;;6.71;100.00;100759.66;4946727;23;20047;-85
2022/04/04 06:58:22;;;;;;;29.23;16.67;;;;;;;7.39;100.00;100758.06;4977613;23;20161;-87
2022/04/04 07:00:48;;;;;;;28.52;14.35;;;;;;;8.27;100.00;100757.97;4915251;29;20392;-85
2022/04/04 07:03:14;;;;;;;24.55;14.70;;;;;;;8.86;100.00;100770.06;4912806;29;20444;-87
2022/04/04 07:05:40;;;;;;;27.10;13.10;;;;;;;9.57;100.00;100771.94;4921144;29;20111;-85
2022/04/04 07:08:06;;;;;;;20.05;13.23;;;;;;;10.18;100.00;100766.72;4889992;29;20044;-87
2022/04/04 07:10:38;;;;;;;17.63;12.35;;;;;;;10.96;100.00;100766.72;4901479;29;20048;-87
2022/04/04 07:13:06;;;;;;;21.70;11.35;;;;;;;11.88;96.45;100763.06;4905043;29;20063;-86
2022/04/04 07:15:32;;;;;;;16.15;11.15;;;;;;;11.06;99.65;100770.94;4922427;29;20552;-86
2022/04/04 07:17:58;;;;;;;20.08;13.23;;;;;;;10.75;100.00;100770.59;4909850;29;20511;-87
2022/04/04 07:20:24;;;;;;;20.17;12.95;;;;;;;10.66;100.00;100766.25;4900284;29;20028;-90
2022/04/04 07:22:51;;;;;;;20.70;12.52;;;;;;;10.73;100.00;100772.59;4886689;29;20600;-85
2022/04/04 07:25:16;;;;;;;22.08;12.68;;;;;;;10.74;100.00;100773.41;4889308;29;20040;-85
2022/04/04 07:27:45;;;;;;;21.55;13.48;;;;;;;11.22;100.00;100771.00;4914146;29;20039;-85
2022/04/04 07:30:16;;;;;;;17.40;11.65;;;;;;;12.42;99.02;100780.19;4896794;29;20087;-86
2022/04/04 07:32:42;;;;;;;15.95;11.57;;;;;;;13.44;86.92;100776.72;4901773;29;20032;-83
2022/04/04 07:35:15;;;;;;;20.42;12.18;;;;;;;14.01;85.00;100793.19;4902645;29;20067;-83
2022/04/04 07:37:42;;;;;;;23.15;11.73;;;;;;;13.96;81.24;100799.03;4892427;29;20091;-87
2022/04/04 07:40:13;;;;;;;22.80;11.18;;;;;;;13.90;79.25;100793.59;4899719;29;20036;-87
2022/04/04 07:42:40;;;;;;;30.80;12.93;;;;;;;13.29;85.49;100797.09;4876431;29;20408;-87
2022/04/04 07:45:10;;;;;;;29.92;12.48;;;;;;;13.94;81.76;100795.75;4878786;29;20075;-87
2022/04/04 07:48:05;;;;;;;23.85;11.60;;;;;;;14.70;77.96;100802.78;4878189;29;20052;-91
2022/04/04 07:50:56;;;;;;;30.33;11.40;;;;;;;16.39;70.54;100804.25;4882821;29;20049;-89
2022/04/04 07:53:28;;;;;;;23.90;11.68;;;;;;;16.66;67.00;100808.00;4922905;23;20052;-89
2022/04/04 07:58:28;;;;;;;20.13;10.50;;;;;;;16.58;65.16;100822.31;4830956;27;20101;-89
2022/04/04 08:00:54;;;;;;;18.75;10.73;;;;;;;15.88;67.94;100822.25;4887242;29;20041;-86
2022/04/04 08:03:22;;;;;;;14.98;9.30;;;;;;;16.85;63.35;100824.19;4895381;29;20032;-84
2022/04/04 08:05:47;;;;;;;15.57;8.70;;;;;;;16.13;63.18;100818.19;4895046;29;20041;-87
2022/04/04 08:08:13;;;;;;;18.73;9.05;;;;;;;15.46;65.60;100833.63;4884133;29;20065;-83
2022/04/04 08:10:39;;;;;;;11.35;8.55;;;;;;;14.26;69.77;100820.47;4885591;29;20173;-86
2022/04/04 08:13:04;;;;;;;16.80;9.25;;;;;;;13.79;73.58;100824.13;4876797;29;20056;-84
2022/04/04 08:15:31;;;;;;;19.42;9.65;;;;;;;14.92;70.16;100823.25;4890383;29;20036;-86
2022/04/04 08:17:57;;;;;;;13.07;7.43;;;;;;;14.34;67.03;100809.78;4878480;29;20025;-87
2022/04/04 08:20:27;;;;;;;18.42;7.20;;;;;;;14.51;68.85;100819.31;4871128;29;20565;-87
2022/04/04 08:23:13;;;;;;;11.45;6.80;;;;;;;15.42;66.51;100829.69;4859564;29;20150;-90
2022/04/04 08:25:42;;;;;;;10.90;6.75;;;;;;;15.22;63.00;100828.59;4890408;29;20044;-88
2022/04/04 08:28:14;;;;;;;9.88;4.93;;;;;;;15.15;58.25;100835.66;4857675;29;20052;-88
2022/04/04 08:30:43;;;;;;;13.52;6.22;;;;;;;15.48;59.18;100828.97;4854813;29;20467;-87
2022/04/04 08:33:11;;;;;;;7.13;5.38;;;;;;;15.48;58.45;100831.63;4868647;29;20051;-87
2022/04/04 08:35:37;;;;;;;11.05;5.63;;;;;;;15.34;57.63;100827.13;4906913;29;20033;-87
2022/04/04 08:38:09;;;;;;;8.18;5.28;;;;;;;15.94;55.97;100833.00;4879535;29;20047;-89
2022/04/04 08:40:38;;;;;;;11.25;5.22;;;;;;;16.17;56.08;100826.69;4885532;29;20040;-89
2022/04/04 08:43:12;;;;;;;14.10;5.53;;;;;;;15.49;55.02;100835.97;4874255;29;20033;-88
2022/04/04 08:45:45;;;;;;;4.85;2.95;;;;;;;15.76;44.34;100842.47;4877167;29;20040;-88
2022/04/04 08:48:12;;;;;;;8.48;3.53;;;;;;;15.65;46.86;100835.75;4879573;29;20044;-86
2022/04/04 08:50:42;;;;;;;4.47;3.05;;;;;;;14.45;48.46;100830.69;4898830;29;20043;-87
2022/04/04 08:53:14;;;;;;;7.22;3.90;;;;;;;13.83;50.66;100836.09;4872261;29;20037;-89
2022/04/04 08:55:41;;;;;;;5.93;2.27;;;;;;;14.70;48.20;100845.47;4870481;29;20522;-86
2022/04/04 08:58:07;;;;;;;5.88;3.08;;;;;;;14.63;48.13;100841.03;4876847;29;20044;-84
2022/04/04 09:00:36;;;;;;;7.40;4.30;;;;;;;13.89;52.19;100839.88;4884150;29;20041;-83
2022/04/04 09:03:03;;;;;;;10.73;3.92;;;;;;;15.01;50.20;100837.34;4886331;29;20048;-85
2022/04/04 09:05:55;;;;;;;8.38;4.63;;;;;;;15.69;49.32;100837.03;4891712;29;20096;-86
2022/04/04 09:08:23;;;;;;;8.90;5.20;;;;;;;15.35;50.57;100845.63;4878542;29;20526;-87
2022/04/04 09:10:55;;;;;;;7.78;4.90;;;;;;;15.09;51.47;100844.41;4894765;29;20047;-86
2022/04/04 09:13:23;;;;;;;7.53;3.15;;;;;;;15.40;47.41;100845.06;4886461;29;20135;-86
2022/04/04 09:16:06;;;;;;;6.75;3.67;;;;;;;15.50;47.93;100842.97;4903204;29;20064;-86
2022/04/04 09:18:39;;;;;;;11.20;5.28;;;;;;;15.16;50.99;100837.34;4895880;29;20040;-87
2022/04/04 09:21:20;;;;;;;10.80;4.32;;;;;;;15.11;51.68;100832.56;4877071;29;20045;-88
2022/04/04 09:23:48;;;;;;;8.20;4.30;;;;;;;14.96;51.36;100829.03;4879434;29;20124;-87
2022/04/04 09:26:42;;;;;;;7.57;3.70;;;;;;;15.35;49.54;100850.13;4885159;29;20037;-88
2022/04/04 09:29:13;;;;;;;6.13;4.20;;;;;;;15.09;50.05;100833.75;4865902;29;20528;-84
2022/04/04 09:32:05;;;;;;;5.65;4.20;;;;;;;15.07;52.55;100830.44;4887237;29;20044;-84
2022/04/04 09:35:02;;;;;;;8.65;4.43;;;;;;;14.94;49.57;100842.59;4897829;29;20047;-81
2022/04/04 09:37:30;;;;;;;15.32;4.13;;;;;;;14.28;51.56;100832.66;4901817;29;20048;-81
2022/04/04 09:40:02;;;;;;;7.43;3.25;;;;;;;14.63;49.70;100833.88;4900468;29;20029;-81
2022/04/04 09:42:34;;;;;;;4.47;2.40;;;;;;;14.86;48.77;100834.66;4900772;29;20051;-82
2022/04/04 09:45:02;;;;;;;7.47;4.50;;;;;;;15.09;50.67;100828.41;4886545;29;20068;-83
2022/04/04 09:47:51;;;;;;;8.18;4.07;;;;;;;15.56;49.39;100831.53;4903358;29;20025;-87
2022/04/04 09:50:41;;;;;;;7.20;4.38;;;;;;;15.64;50.34;100831.44;4903769;29;20101;-86
2022/04/04 09:53:30;;;;;;;6.95;4.43;;;;;;;15.89;49.01;100822.06;4902735;29;20040;-84
2022/04/04 09:56:00;;;;;;;10.18;5.30;;;;;;;16.69;48.29;100829.84;4902688;29;20036;-86
2022/04/04 09:58:30;;;;;;;7.18;5.53;;;;;;;16.41;49.49;100832.44;4903528;29;20036;-86
2022/04/04 10:00:58;;;;;;;9.43;4.63;;;;;;;16.66;47.37;100830.22;4886606;29;20056;-92
2022/04/04 10:03:25;;;;;;;12.18;4.57;;;;;;;16.37;48.04;100823.16;4887733;29;20037;-89
2022/04/04 10:05:57;;;;;;;7.00;4.40;;;;;;;16.83;48.27;100823.56;4904817;29;20032;-86
2022/04/04 10:08:30;;;;;;;7.43;4.70;;;;;;;16.68;47.98;100816.63;4903520;29;20044;-89
2022/04/04 10:10:59;;;;;;;;;;;;;;;16.60;48.00;100820.31;4889274;29;20303;-89
2022/04/04 10:13:29;;;;;;;6.18;4.78;;;;;;;16.25;49.18;100815.81;4899606;29;19926;-88
2022/04/04 10:15:58;;;;;;;11.07;4.95;;;;;;;16.33;49.52;100808.53;4873190;29;20493;-87
2022/04/04 10:18:24;;;;;;;13.50;5.57;;;;;;;17.05;48.01;100819.78;4888444;29;20040;-84
2022/04/04 10:20:53;;;;;;;8.18;4.60;;;;;;;16.66;48.99;100806.16;4872356;29;20037;-87
2022/04/04 10:23:23;;;;;;;9.32;5.05;;;;;;;16.65;48.79;100811.69;4886516;29;20049;-86
2022/04/04 10:25:50;;;;;;;14.25;5.35;;;;;;;17.09;47.15;100804.16;4866346;29;20052;-86
2022/04/04 10:28:37;;;;;;;8.75;4.85;;;;;;;16.18;49.07;100798.91;4882937;29;20178;-84
2022/04/04 10:31:19;;;;;;;6.78;4.97;;;;;;;16.59;48.94;100797.22;4880173;29;20047;-84
2022/04/04 10:33:47;;;;;;;9.43;5.28;;;;;;;16.98;49.21;100788.63;4882142;29;20041;-84
2022/04/04 10:36:20;;;;;;;6.97;4.68;;;;;;;17.42;46.20;100793.59;4883720;29;20076;-84
2022/04/04 10:38:45;;;;;;;10.43;5.00;;;;;;;17.71;45.73;100787.97;4867559;29;20072;-85
2022/04/04 10:41:14;;;;;;;7.15;4.68;;;;;;;17.82;44.99;100782.03;4887223;29;20040;-84
2022/04/04 10:43:46;;;;;;;12.95;5.13;;;;;;;16.13;49.67;100793.31;4863376;29;20042;-83
2022/04/04 10:46:13;;;;;;;9.13;5.25;;;;;;;15.25;53.20;100780.16;4879386;29;20090;-82
2022/04/04 10:48:46;;;;;;;7.22;5.03;;;;;;;14.80;54.57;100774.00;4864898;29;20056;-81
2022/04/04 10:51:18;;;;;;;13.65;5.43;;;;;;;14.70;55.06;100778.78;4880708;29;20033;-82
2022/04/04 10:53:57;;;;;;;7.90;5.25;;;;;;;14.24;56.14;100770.03;4883961;29;20105;-83
2022/04/04 10:56:58;;;;;;;11.85;5.75;;;;;;;14.99;55.44;100767.28;4883599;29;20037;-83
2022/04/04 10:59:25;;;;;;;11.50;5.30;;;;;;;15.68;51.82;100760.56;4846350;29;20043;-87
2022/04/04 11:01:56;;;;;;;10.63;5.50;;;;;;;16.39;50.74;100764.13;4836541;29;20075;-85
2022/04/04 11:04:30;;;;;;;10.55;5.97;;;;;;;16.49;51.64;100768.13;4827590;29;20103;-85
2022/04/04 11:10:06;;;;;;;16.75;5.88;;;;;;;16.58;51.05;100765.31;4872269;29;20104;-86
2022/04/04 11:13:00;;;;;;;7.45;5.07;;;;;;;15.29;54.94;100752.91;4903870;29;20099;-85
2022/04/04 11:16:01;;;;;;;8.63;5.45;;;;;;;14.46;57.29;100752.34;4900415;29;20048;-83
2022/04/04 11:18:54;;;;;;;10.18;5.32;;;;;;;14.43;56.11;100758.03;4869951;29;20136;-85
2022/04/04 11:21:42;;;;;;;11.80;4.93;;;;;;;13.85;56.68;100754.16;4891965;29;20112;-87
2022/04/04 11:24:17;;;;;;;11.05;5.30;;;;;;;13.84;56.69;100752.50;4905055;29;20052;-85
2022/04/04 11:26:46;;;;;;;8.43;5.40;;;;;;;14.07;57.25;100757.00;4885679;29;20434;-82
2022/04/04 11:29:19;;;;;;;7.22;5.40;;;;;;;14.29;58.08;100750.81;4896874;29;20040;-88
2022/04/04 11:31:51;;;;;;;;;;;;;;;14.55;57.75;100751.25;4878828;29;20065;-86
2022/04/04 11:34:17;;;;;;;12.43;6.35;;;;;;;13.96;59.05;100740.41;4898056;29;19939;-87
2022/04/04 11:36:46;;;;;;;8.73;6.55;;;;;;;13.65;60.13;100747.66;4902582;29;20055;-83
2022/04/04 11:39:16;;;;;;;8.88;5.93;;;;;;;13.51;60.67;100748.41;4896687;29;20096;-84
2022/04/04 11:41:52;;;;;;;10.60;5.82;;;;;;;13.42;60.66;100746.78;4888604;29;20365;-82
2022/04/04 11:44:27;;;;;;;9.93;5.80;;;;;;;13.44;61.17;100734.13;4893672;29;20052;-80
2022/04/04 11:47:08;;;;;;;9.82;6.00;;;;;;;13.29;61.01;100736.69;4880323;29;20025;-82
2022/04/04 11:49:39;;;;;;;10.68;5.63;;;;;;;13.74;58.38;100735.09;4903046;29;20037;-83
2022/04/04 11:52:07;;;;;;;9.88;6.15;;;;;;;14.12;57.53;100734.13;4906948;29;20036;-81